WetterOnline ( http://www.wetteronline.de )

Wetter aktuell Prag

Aktuelles Wetter: Prag-Kbely (287m)

6-stündlich | Neueste Meldungen
Ortszeit Temperatur Wetter
Do, 14.12. 13:00 5.6° C wolkig
Do, 14.12. 7:00 3.3° C wolkig
Do, 14.12. 1:00 3.0° C bedeckt
Mi, 13.12. 19:00 1.6° C leicht bewölkt
Ortszeit Temperatur Wetter
Do, 14.12. 18:00 4° C leicht bewölkt
Do, 14.12. 17:00 4.3° C leicht bewölkt
Do, 14.12. 16:00 4.3° C leicht bewölkt
Do, 14.12. 15:00 5.1° C leicht bewölkt
Do, 14.12. 14:00 5.5° C wolkig
Do, 14.12. 13:00 5.6° C wolkig
Ortszeit Relative Feuchte Sichtweite
Do, 14.12. 13:00 49% 25 km
Do, 14.12. 7:00 82% 25 km
Do, 14.12. 1:00 59% 20 km
Mi, 13.12. 19:00 60% 25 km
Ortszeit Relative Feuchte Sichtweite
Do, 14.12. 18:00 60% >10 km
Do, 14.12. 17:00 58% 25 km
Do, 14.12. 16:00 59% 25 km
Do, 14.12. 15:00 54% 25 km
Do, 14.12. 14:00 51% 25 km
Do, 14.12. 13:00 49% 25 km
Ortszeit Niederschlagsmenge Niederschlagsart
Do, 14.12. 13:00 0.0 l/m2 in 6 Std. -
Do, 14.12. 7:00 0.8 l/m2 in 12 Std. Schnee, Regen
Do, 14.12. 1:00 0.0 l/m2 in 6 Std. -
Mi, 13.12. 19:00 0.0 l/m2 in 12 Std. -
Ortszeit Niederschlagsmenge Niederschlagsart
Do, 14.12. 18:00 keine Meldung -
Do, 14.12. 17:00 0.0 l/m2 in 1 Std. -
Do, 14.12. 16:00 0.0 l/m2 in 1 Std. -
Do, 14.12. 15:00 0.0 l/m2 in 1 Std. -
Do, 14.12. 14:00 0.0 l/m2 in 1 Std. -
Do, 14.12. 13:00 0.0 l/m2 in 1 Std. -
Ortszeit Stärke Spitze Richtung
km/h Bft. km/h Grad Sektor
Do, 14.12. 13:00 43 6 83 230° SW
Do, 14.12. 7:00 18 3 47 190° S
Do, 14.12. 1:00 22 4 40 160° S
Mi, 13.12. 19:00 22 4 - 160° S
Ortszeit Stärke Spitze Richtung
km/h Bft. km/h Grad Sektor
Do, 14.12. 18:00 17 3 - 190° S
Do, 14.12. 17:00 36 5 50 210° SW
Do, 14.12. 16:00 29 5 72 220° SW
Do, 14.12. 15:00 36 5 58 240° SW
Do, 14.12. 14:00 43 6 72 230° SW
Do, 14.12. 13:00 43 6 83 230° SW
Ortszeit Untergrenze Bedeckung Gattung
total tief tief mittel hoch
Do, 14.12. 13:00 990 m 5/8 5/8 Cu - -
Do, 14.12. 7:00 660 m 6/8 6/8 Sc - -
Do, 14.12. 1:00 810 m 8/8 8/8 Sc - -
Mi, 13.12. 19:00 6000 m 7/8 0/8 - - Cs
Ortszeit Bedeckungsgrad in Achtel und Wolkenuntergrenze
Do, 14.12. 18:00 1-2(1050m) 3-4(1380m)
Do, 14.12. 17:00 2(1050m) 4(1800m)
Do, 14.12. 16:00 2(1050m) 4(1230m)
Do, 14.12. 15:00 3(1050m)
Do, 14.12. 14:00 2(1050m) 5(1320m)
Do, 14.12. 13:00 3(990m) 5(1290m)
Ortszeit Luftdruck NN (hPa) Tendenz (hPa in 3 Std.)
Do, 14.12. 13:00 999 + 3,2
Do, 14.12. 7:00 995 - 1,3
Do, 14.12. 1:00 999 - 4,8
Mi, 13.12. 19:00 1008 - 4,1
Ortszeit Luftdruck NN (hPa) Tendenz (hPa in 3 Std.)
Do, 14.12. 18:00 999 keine Meldung
Do, 14.12. 17:00 1000 + 0,5
Do, 14.12. 16:00 1000 + 0,8
Do, 14.12. 15:00 999 + 1,0
Do, 14.12. 14:00 999 + 2,1
Do, 14.12. 13:00 999 + 3,2
Ortszeit Schneehöhe (cm)
Do, 14.12. 13:00 -
Do, 14.12. 7:00 -
Do, 14.12. 1:00 -
Mi, 13.12. 19:00 -
Ortszeit Schneehöhe (cm)
Do, 14.12. 18:00 -
Do, 14.12. 17:00 -
Do, 14.12. 16:00 -
Do, 14.12. 15:00 -
Do, 14.12. 14:00 -
Do, 14.12. 13:00 -
Link zu dieser Seite / Seite empfehlen

Das Wetter in ...